Time;durP1;ratioP1;P1;durP2;ratioP2;P2;SDS_P1;SDS_P2;PMS_P1;PMS_P2;Temp;Humidity;BMP_temperature;BMP_pressure;BME280_temperature;BME280_humidity;BME280_pressure;Samples;Min_cycle;Max_cycle;Signal;HPM_P1;HPM_P2
2022/10/25 00:00:21;;;;;;;1.67;0.60;;;;;;;20.78;66.33;100455.53;4962957;28;20174;-69
2022/10/25 00:02:46;;;;;;;2.43;0.80;;;;;;;20.78;67.06;100449.81;4961256;28;20297;-69
2022/10/25 00:05:15;;;;;;;2.20;0.90;;;;;;;20.78;66.59;100447.72;4984330;28;20205;-71
2022/10/25 00:07:40;;;;;;;1.53;0.77;;;;;;;20.76;66.69;100449.34;4955006;29;20234;-71
2022/10/25 00:10:06;;;;;;;1.93;0.70;;;;;;;20.77;66.52;100456.75;4941796;29;20419;-71
2022/10/25 00:12:32;;;;;;;1.80;0.60;;;;;;;20.78;66.83;100450.59;4942586;29;20218;-71
2022/10/25 00:15:01;;;;;;;1.83;0.90;;;;;;;20.76;66.76;100458.78;4926525;29;20183;-72
2022/10/25 00:17:26;;;;;;;2.50;0.87;;;;;;;20.76;66.68;100455.91;4928689;28;20226;-72
2022/10/25 00:19:51;;;;;;;1.70;0.73;;;;;;;20.75;67.01;100456.31;4962794;28;20977;-71
2022/10/25 00:22:17;;;;;;;1.77;0.70;;;;;;;20.75;66.74;100457.16;4979495;28;20170;-71
2022/10/25 00:24:42;;;;;;;1.73;0.70;;;;;;;20.74;66.76;100451.78;4961850;28;20158;-71
2022/10/25 00:27:08;;;;;;;1.60;0.77;;;;;;;20.75;66.98;100460.00;4962498;28;20158;-70
2022/10/25 00:29:33;;;;;;;2.10;0.83;;;;;;;20.75;66.98;100450.56;4979544;28;20177;-71
2022/10/25 00:31:59;;;;;;;1.77;0.70;;;;;;;20.76;66.91;100450.19;4962815;28;20198;-71
2022/10/25 00:34:24;;;;;;;2.23;0.80;;;;;;;20.76;67.04;100444.44;4961631;28;20187;-72
2022/10/25 00:36:49;;;;;;;2.27;0.70;;;;;;;20.76;67.14;100435.84;4979880;28;20167;-71
2022/10/25 00:39:15;;;;;;;1.57;0.73;;;;;;;20.74;67.15;100444.03;4962349;28;20165;-71
2022/10/25 00:41:40;;;;;;;1.50;0.70;;;;;;;20.77;66.69;100431.75;4961708;28;20163;-71
2022/10/25 00:44:37;;;;;;;2.47;0.80;;;;;;;20.77;66.91;100445.28;4961762;28;20186;-71
2022/10/25 00:47:04;;;;;;;1.47;0.67;;;;;;;20.76;67.12;100443.59;4996316;28;20197;-72
2022/10/25 00:49:30;;;;;;;2.60;0.80;;;;;;;20.77;67.30;100445.28;4964100;28;20454;-71
2022/10/25 00:51:57;;;;;;;2.00;0.73;;;;;;;20.77;67.14;100440.34;4962125;28;20446;-72
2022/10/25 00:54:25;;;;;;;2.90;0.70;;;;;;;20.74;67.25;100446.06;4962558;28;20186;-72
2022/10/25 00:56:50;;;;;;;1.73;0.77;;;;;;;20.73;66.86;100450.97;4946205;28;20963;-71
2022/10/25 00:59:18;;;;;;;1.57;0.70;;;;;;;20.73;67.23;100448.09;4979125;28;20493;-72
2022/10/25 01:01:43;;;;;;;1.50;0.70;;;;;;;20.75;67.01;100447.69;4940903;28;20544;-66
2022/10/25 01:04:10;;;;;;;1.83;0.70;;;;;;;20.74;67.07;100455.50;4948994;28;20476;-66
2022/10/25 01:06:37;;;;;;;2.00;0.83;;;;;;;20.73;66.94;100445.22;4956561;28;20219;-66
2022/10/25 01:09:02;;;;;;;2.63;0.80;;;;;;;20.74;67.08;100454.66;4956399;28;20960;-66
2022/10/25 01:11:28;;;;;;;2.40;0.93;;;;;;;20.74;66.95;100460.41;4956509;28;20449;-66
2022/10/25 01:13:53;;;;;;;1.60;0.80;;;;;;;20.72;67.52;100460.78;4956549;28;20187;-66
2022/10/25 01:17:05;;;;;;;2.00;0.63;;;;;;;20.74;67.41;100458.38;4968868;28;20182;-66
2022/10/25 01:19:58;;;;;;;3.50;0.80;;;;;;;20.76;67.13;100463.69;4918869;28;20202;-66
2022/10/25 01:22:59;;;;;;;1.70;0.70;;;;;;;20.75;67.19;100460.00;4956138;28;20414;-66
2022/10/25 01:25:57;;;;;;;2.70;0.80;;;;;;;20.73;67.17;100458.75;4878132;29;20526;-66
2022/10/25 01:28:50;;;;;;;2.30;0.77;;;;;;;20.73;67.37;100462.44;4956348;28;20425;-66
2022/10/25 01:31:19;;;;;;;6.50;0.70;;;;;;;20.72;67.38;100455.03;4973008;28;20485;-66
2022/10/25 01:33:57;;;;;;;1.60;0.70;;;;;;;20.73;67.41;100462.44;4955414;28;20430;-66
2022/10/25 01:36:43;;;;;;;1.47;0.70;;;;;;;20.72;68.19;100455.03;4940246;28;20424;-66
2022/10/25 01:39:14;;;;;;;3.10;0.77;;;;;;;20.72;67.42;100455.03;4955018;28;20450;-66
2022/10/25 01:41:47;;;;;;;2.37;0.70;;;;;;;20.72;67.43;100457.91;4955437;28;20406;-66
2022/10/25 01:44:37;;;;;;;1.80;0.80;;;;;;;20.71;67.37;100453.41;4972624;28;20422;-66
2022/10/25 01:47:07;;;;;;;2.70;0.80;;;;;;;20.72;67.59;100452.19;4955963;28;20573;-66
2022/10/25 01:49:38;;;;;;;2.23;0.80;;;;;;;20.72;67.47;100446.44;4939060;29;20462;-66
2022/10/25 01:52:04;;;;;;;1.50;0.60;;;;;;;20.72;68.15;100455.03;4951790;28;20497;-66
2022/10/25 01:54:29;;;;;;;1.20;0.50;;;;;;;20.71;67.53;100462.00;4953863;29;20879;-66
2022/10/25 01:57:20;;;;;;;1.50;0.70;;;;;;;20.73;67.45;100453.03;4939244;28;20293;-66
2022/10/25 01:59:48;;;;;;;1.80;0.80;;;;;;;20.72;67.29;100451.38;4972892;28;20626;-66
2022/10/25 02:02:23;;;;;;;1.50;0.70;;;;;;;20.72;67.56;100457.13;4973035;28;20783;-66
2022/10/25 02:05:27;;;;;;;1.27;0.50;;;;;;;20.72;67.45;100459.97;4936319;29;20513;-66
2022/10/25 02:08:01;;;;;;;1.50;0.70;;;;;;;20.71;68.28;100456.28;4922422;29;20573;-66
2022/10/25 02:10:58;;;;;;;1.40;0.57;;;;;;;20.70;67.52;100453.78;4949271;29;20461;-66
2022/10/25 02:13:45;;;;;;;1.40;0.70;;;;;;;20.72;67.66;100459.97;4938661;29;20432;-66
2022/10/25 02:16:23;;;;;;;1.87;0.70;;;;;;;20.70;67.08;100457.50;4953579;29;20741;-66
2022/10/25 02:18:50;;;;;;;1.60;0.70;;;;;;;20.69;67.75;100444.38;4959317;28;20522;-66
2022/10/25 02:21:15;;;;;;;1.70;0.67;;;;;;;20.70;67.41;100451.75;4968195;28;20403;-66
2022/10/25 02:23:41;;;;;;;1.40;0.60;;;;;;;20.71;67.45;100441.09;4936179;29;20497;-66
2022/10/25 02:26:07;;;;;;;2.43;0.80;;;;;;;20.70;67.34;100439.44;4968077;28;20170;-66
2022/10/25 02:28:33;;;;;;;1.50;0.60;;;;;;;20.70;67.59;100439.44;4935984;29;20214;-66
2022/10/25 02:30:59;;;;;;;3.80;0.63;;;;;;;20.71;67.71;100441.94;4967868;28;20455;-66
2022/10/25 02:33:24;;;;;;;2.97;0.80;;;;;;;20.69;67.59;100444.38;4935934;29;20432;-66
2022/10/25 02:36:12;;;;;;;1.50;0.63;;;;;;;20.67;67.86;100446.78;4951930;29;20242;-66
2022/10/25 02:38:38;;;;;;;2.20;0.90;;;;;;;20.69;67.94;100443.53;4951675;29;20211;-66
2022/10/25 02:41:04;;;;;;;1.30;0.53;;;;;;;20.69;67.88;100447.25;4983961;28;20461;-66
2022/10/25 02:43:29;;;;;;;2.07;0.77;;;;;;;20.68;67.60;100442.69;4968045;28;20179;-66
2022/10/25 02:45:55;;;;;;;1.63;0.70;;;;;;;20.69;67.72;100455.84;4967792;28;20167;-66
2022/10/25 02:48:20;;;;;;;1.50;0.70;;;;;;;20.68;67.81;100447.63;4951307;29;20694;-66
2022/10/25 02:50:46;;;;;;;1.97;0.83;;;;;;;20.68;67.83;100444.75;4951788;29;20687;-66
2022/10/25 02:53:11;;;;;;;2.60;0.90;;;;;;;20.69;67.66;100443.53;4938262;28;20236;-66
2022/10/25 02:55:37;;;;;;;1.53;0.73;;;;;;;20.66;67.91;100445.16;4952891;29;20234;-66
2022/10/25 02:58:03;;;;;;;1.57;0.60;;;;;;;20.66;68.05;100439.41;4951612;29;20205;-66
2022/10/25 03:00:28;;;;;;;1.60;0.67;;;;;;;20.68;67.82;100447.63;4951421;29;20847;-66
2022/10/25 03:02:54;;;;;;;1.57;0.57;;;;;;;20.68;67.71;100445.56;4949936;29;20168;-66
2022/10/25 03:05:19;;;;;;;2.00;0.90;;;;;;;20.69;67.72;100443.53;4950931;29;20529;-66
2022/10/25 03:07:44;;;;;;;1.57;0.67;;;;;;;20.68;67.75;100447.63;4955121;29;20293;-66
2022/10/25 03:10:10;;;;;;;3.00;0.80;;;;;;;20.67;67.60;100441.06;4955592;29;20194;-66
2022/10/25 03:12:35;;;;;;;1.70;0.60;;;;;;;20.67;67.57;100449.66;4956801;28;20560;-66
2022/10/25 03:15:01;;;;;;;1.83;0.50;;;;;;;20.67;67.89;100443.94;4955241;29;20238;-66
2022/10/25 03:17:26;;;;;;;1.40;0.63;;;;;;;20.66;67.69;100450.88;4938381;29;20175;-66
2022/10/25 03:19:52;;;;;;;1.50;0.67;;;;;;;20.66;67.73;100450.88;4936290;29;20186;-66
2022/10/25 03:22:17;;;;;;;1.30;0.53;;;;;;;20.66;67.80;100444.31;4935648;29;20156;-66
2022/10/25 03:24:42;;;;;;;1.43;0.60;;;;;;;20.66;68.12;100453.75;4935056;29;20172;-66
2022/10/25 03:27:08;;;;;;;1.53;0.60;;;;;;;20.68;67.89;100451.31;4927675;29;20187;-66
2022/10/25 03:29:33;;;;;;;1.90;0.57;;;;;;;20.67;67.88;100446.78;4936344;29;20164;-66
2022/10/25 03:31:59;;;;;;;1.40;0.70;;;;;;;20.67;67.56;100445.97;4950046;29;20842;-66
2022/10/25 03:34:24;;;;;;;1.60;0.70;;;;;;;20.67;67.88;100446.78;4954140;29;20591;-66
2022/10/25 03:36:51;;;;;;;2.03;0.73;;;;;;;20.66;67.96;100448.00;4954275;28;20206;-66
2022/10/25 03:39:16;;;;;;;1.50;0.50;;;;;;;20.68;68.01;100454.19;4939371;29;20238;-66
2022/10/25 03:41:42;;;;;;;1.47;0.60;;;;;;;20.69;67.72;100461.59;4955044;29;20415;-66
2022/10/25 03:44:07;;;;;;;2.60;0.60;;;;;;;20.67;67.76;100454.59;4956193;28;20179;-66
2022/10/25 03:46:32;;;;;;;1.40;0.80;;;;;;;20.68;67.77;100454.19;4938346;29;20224;-66
2022/10/25 03:48:58;;;;;;;1.50;0.60;;;;;;;20.68;67.74;100464.84;4956068;28;20186;-66
2022/10/25 03:51:23;;;;;;;1.40;0.60;;;;;;;20.67;68.11;100466.88;4938371;29;20202;-66
2022/10/25 03:53:49;;;;;;;2.70;0.77;;;;;;;20.66;68.08;100468.09;4956144;28;20235;-66
2022/10/25 03:56:15;;;;;;;1.50;0.60;;;;;;;20.68;67.68;100473.44;4954870;29;20172;-66
2022/10/25 03:58:40;;;;;;;1.80;0.63;;;;;;;20.67;67.62;100472.63;4958429;28;20536;-66
2022/10/25 04:01:09;;;;;;;1.40;0.50;;;;;;;20.68;67.85;100464.84;4954523;29;20171;-66
2022/10/25 04:03:34;;;;;;;1.40;0.50;;;;;;;20.66;67.88;100473.00;4955665;28;20207;-66
2022/10/25 04:06:00;;;;;;;1.57;0.77;;;;;;;20.66;67.84;100473.00;4954626;29;20417;-66
2022/10/25 04:08:25;;;;;;;2.07;0.70;;;;;;;20.69;67.57;100480.84;4954466;29;20643;-66
2022/10/25 04:10:50;;;;;;;1.50;0.60;;;;;;;20.66;67.68;100467.25;4954497;29;20232;-66
2022/10/25 04:13:16;;;;;;;2.83;0.73;;;;;;;20.64;67.99;100470.53;4955768;28;20243;-66
2022/10/25 04:15:41;;;;;;;2.93;0.80;;;;;;;20.67;67.57;100472.63;4953308;28;20175;-66
2022/10/25 04:18:07;;;;;;;1.50;0.57;;;;;;;20.65;67.65;100472.19;4938451;29;20197;-66
2022/10/25 04:20:32;;;;;;;1.30;0.57;;;;;;;20.66;67.64;100473.84;4924882;28;20172;-66
2022/10/25 04:22:58;;;;;;;2.20;0.70;;;;;;;20.69;67.73;100473.06;4985417;28;20183;-66
2022/10/25 04:25:24;;;;;;;1.40;0.63;;;;;;;20.67;67.84;100481.22;4955651;28;20168;-66
2022/10/25 04:27:49;;;;;;;1.90;0.80;;;;;;;20.68;68.00;100477.13;4954427;29;20262;-66
2022/10/25 04:30:15;;;;;;;1.53;0.70;;;;;;;20.68;67.49;100477.13;4953980;29;20941;-66
2022/10/25 04:32:40;;;;;;;1.33;0.50;;;;;;;20.68;67.74;100471.38;4954079;29;20201;-66
2022/10/25 04:35:06;;;;;;;1.33;0.60;;;;;;;20.67;67.69;100481.22;4954051;29;20654;-66
2022/10/25 04:37:31;;;;;;;1.73;0.70;;;;;;;20.67;67.46;100469.75;4954017;29;20186;-66
2022/10/25 04:39:57;;;;;;;1.87;0.63;;;;;;;20.67;67.61;100471.81;4938032;29;20588;-66
2022/10/25 04:42:22;;;;;;;1.40;0.50;;;;;;;20.66;68.10;100470.97;4953944;29;20588;-66
2022/10/25 04:44:47;;;;;;;1.40;0.60;;;;;;;20.65;67.93;100466.44;4953847;29;20171;-66
2022/10/25 04:47:13;;;;;;;1.40;0.53;;;;;;;20.67;67.74;100472.63;4956258;28;20662;-66
2022/10/25 04:49:38;;;;;;;1.50;0.60;;;;;;;20.69;67.62;100481.69;4955210;28;20190;-66
2022/10/25 04:52:04;;;;;;;1.40;0.60;;;;;;;20.67;67.82;100471.81;4953740;29;20191;-66
2022/10/25 04:54:29;;;;;;;1.50;0.60;;;;;;;20.68;67.60;100482.06;4937936;29;20236;-66
2022/10/25 04:56:55;;;;;;;2.17;0.80;;;;;;;20.66;67.83;100484.47;4954906;28;20172;-66
2022/10/25 04:59:20;;;;;;;1.53;0.50;;;;;;;20.68;67.87;100493.53;4953517;29;20167;-66
2022/10/25 05:01:46;;;;;;;1.40;0.53;;;;;;;20.69;67.73;100484.53;4954670;29;20236;-66
2022/10/25 05:04:11;;;;;;;1.57;0.70;;;;;;;20.67;67.77;100484.09;4918242;29;20267;-66
2022/10/25 05:06:36;;;;;;;1.70;0.70;;;;;;;20.68;67.91;100484.94;4939306;29;20286;-66
2022/10/25 05:09:02;;;;;;;2.13;0.80;;;;;;;20.67;67.74;100486.97;4956535;28;20178;-66
2022/10/25 05:11:31;;;;;;;1.80;0.70;;;;;;;20.67;67.61;100495.56;4939825;28;20643;-66
2022/10/25 05:13:56;;;;;;;1.40;0.70;;;;;;;20.68;67.80;100499.28;4939400;28;20281;-66
2022/10/25 05:16:23;;;;;;;2.30;0.87;;;;;;;20.68;67.93;100500.09;4955364;28;20422;-66
2022/10/25 05:18:50;;;;;;;1.70;0.70;;;;;;;20.67;67.57;100509.91;4939719;28;20237;-67
2022/10/25 05:21:15;;;;;;;1.40;0.60;;;;;;;20.68;67.90;100502.94;4939154;28;20929;-67
2022/10/25 05:23:41;;;;;;;1.20;0.40;;;;;;;20.68;67.96;100505.00;4955441;28;20500;-66
2022/10/25 05:26:13;;;;;;;1.50;0.70;;;;;;;20.67;67.53;100498.44;4955483;28;20217;-66
2022/10/25 05:28:39;;;;;;;2.83;0.80;;;;;;;20.69;67.87;100503.78;4958482;28;20748;-66
2022/10/25 05:31:34;;;;;;;1.37;0.60;;;;;;;20.69;68.09;100507.50;4987227;28;20411;-66
2022/10/25 05:34:00;;;;;;;1.40;0.60;;;;;;;20.68;67.46;100507.88;4946591;28;20509;-66
2022/10/25 05:36:28;;;;;;;1.80;0.53;;;;;;;20.67;67.97;100509.91;4955110;28;20419;-66
2022/10/25 05:38:53;;;;;;;1.47;0.70;;;;;;;20.66;67.81;100508.25;4954678;28;20277;-67
2022/10/25 05:41:19;;;;;;;1.57;0.60;;;;;;;20.68;67.89;100502.16;4954959;28;20453;-66
2022/10/25 05:43:44;;;;;;;1.73;0.60;;;;;;;20.67;67.90;100509.09;4939240;28;20548;-66
2022/10/25 05:46:11;;;;;;;1.50;0.63;;;;;;;20.69;67.46;100513.22;4973390;28;20170;-66
2022/10/25 05:48:36;;;;;;;2.27;0.83;;;;;;;20.67;68.03;100509.91;4955775;28;20704;-66
2022/10/25 05:51:12;;;;;;;1.67;0.80;;;;;;;20.68;67.67;100510.75;4955797;28;20418;-66
2022/10/25 05:53:41;;;;;;;1.50;0.70;;;;;;;20.68;67.79;100505.00;4955372;28;20182;-66
2022/10/25 05:56:07;;;;;;;1.33;0.60;;;;;;;20.68;67.67;100505.81;4939264;28;20445;-66
2022/10/25 05:58:32;;;;;;;1.70;0.73;;;;;;;20.69;67.73;100510.38;4955653;28;20434;-66
2022/10/25 06:00:59;;;;;;;2.00;0.80;;;;;;;20.70;67.58;100511.16;4958324;28;20189;-66
2022/10/25 06:03:24;;;;;;;1.30;0.60;;;;;;;20.69;68.08;100513.22;4949778;28;20175;-66
2022/10/25 06:05:50;;;;;;;2.60;0.60;;;;;;;20.68;67.78;100516.50;4935428;29;20419;-67
2022/10/25 06:08:15;;;;;;;2.03;0.60;;;;;;;20.67;67.95;100515.66;4933353;29;20241;-66
2022/10/25 06:10:41;;;;;;;1.43;0.67;;;;;;;20.65;67.61;100517.25;4934053;29;20187;-66
2022/10/25 06:13:06;;;;;;;2.10;0.70;;;;;;;20.68;67.44;100528.78;4936146;29;20524;-66
2022/10/25 06:15:32;;;;;;;1.90;0.90;;;;;;;20.68;68.12;100516.50;4953714;29;20718;-66
2022/10/25 06:17:57;;;;;;;1.70;0.93;;;;;;;20.67;67.83;100520.59;4941235;28;20186;-66
2022/10/25 06:20:22;;;;;;;1.30;0.53;;;;;;;20.67;67.77;100524.25;4957890;28;20508;-66
2022/10/25 06:22:48;;;;;;;2.80;0.77;;;;;;;20.68;67.59;100525.09;4955181;28;20595;-66
2022/10/25 06:25:13;;;;;;;1.30;0.50;;;;;;;20.68;67.72;100527.97;4951800;29;20175;-66
2022/10/25 06:27:39;;;;;;;1.50;0.60;;;;;;;20.68;67.74;100530.84;4904301;29;20179;-66
2022/10/25 06:30:05;;;;;;;1.30;0.50;;;;;;;20.70;67.47;100539.88;4927840;28;20182;-66
2022/10/25 06:32:30;;;;;;;2.00;0.67;;;;;;;20.70;67.48;100539.88;4954960;28;20567;-66
2022/10/25 06:34:56;;;;;;;1.40;0.60;;;;;;;20.68;67.74;100545.97;4968353;28;20435;-66
2022/10/25 06:37:21;;;;;;;1.40;0.60;;;;;;;20.67;67.92;100552.94;4935517;29;20206;-66
2022/10/25 06:39:47;;;;;;;1.40;0.60;;;;;;;20.68;67.43;100556.66;4936396;28;20921;-66
2022/10/25 06:42:12;;;;;;;1.77;0.67;;;;;;;20.71;67.59;100556.69;4959527;28;20179;-66
2022/10/25 06:44:37;;;;;;;1.57;0.60;;;;;;;20.70;67.83;100554.22;4958926;28;20210;-66
2022/10/25 06:47:03;;;;;;;1.50;0.60;;;;;;;20.69;67.97;100558.31;4926080;28;20206;-66
2022/10/25 06:49:28;;;;;;;1.47;0.70;;;;;;;20.69;67.80;100564.88;4943853;28;20520;-66
2022/10/25 06:51:54;;;;;;;1.57;0.60;;;;;;;20.70;68.16;100566.53;4941907;28;20213;-66
2022/10/25 06:54:19;;;;;;;1.30;0.60;;;;;;;20.70;67.63;100568.56;4937298;28;20179;-66
2022/10/25 06:56:45;;;;;;;1.60;0.60;;;;;;;20.67;67.53;100570.16;4950731;28;20187;-67
2022/10/25 06:59:10;;;;;;;3.53;0.60;;;;;;;20.68;67.63;100574.69;4960282;28;20193;-66
2022/10/25 07:01:36;;;;;;;1.43;0.63;;;;;;;20.69;67.68;100573.50;4959864;28;20658;-66
2022/10/25 07:04:01;;;;;;;1.57;0.60;;;;;;;20.70;67.50;100565.69;4947330;28;20199;-66
2022/10/25 07:06:28;;;;;;;1.97;0.93;;;;;;;20.70;67.84;100572.25;4945684;28;20182;-66
2022/10/25 07:08:55;;;;;;;1.80;0.70;;;;;;;20.70;67.83;100572.25;4925173;28;20189;-66
2022/10/25 07:11:20;;;;;;;1.63;0.60;;;;;;;20.70;67.46;100571.44;4953405;28;20453;-66
2022/10/25 07:13:46;;;;;;;3.20;0.70;;;;;;;20.66;68.10;100577.13;4955470;28;20434;-67
2022/10/25 07:16:14;;;;;;;1.70;0.60;;;;;;;20.69;67.87;100576.34;4958221;28;20358;-66
2022/10/25 07:18:40;;;;;;;2.90;0.73;;;;;;;20.69;67.54;100582.09;4926510;28;20183;-66
2022/10/25 07:21:13;;;;;;;1.43;0.60;;;;;;;20.71;67.35;100593.16;4931486;28;20437;-66
2022/10/25 07:23:41;;;;;;;1.30;0.60;;;;;;;20.70;67.50;100583.75;4939836;28;20243;-66
2022/10/25 07:26:34;;;;;;;2.00;0.80;;;;;;;20.71;67.46;100585.38;4925737;28;20473;-66
2022/10/25 07:29:00;;;;;;;1.33;0.50;;;;;;;20.70;67.70;100594.38;4938309;28;20453;-66
2022/10/25 07:31:30;;;;;;;1.90;0.70;;;;;;;20.69;67.54;100589.88;4924669;28;20426;-66
2022/10/25 07:33:57;;;;;;;1.30;0.60;;;;;;;20.69;67.69;100593.56;4942693;28;20178;-66
2022/10/25 07:36:22;;;;;;;1.37;0.53;;;;;;;20.69;67.64;100584.97;4939586;28;20438;-66
2022/10/25 07:38:48;;;;;;;1.80;0.70;;;;;;;20.69;67.50;100599.31;4941671;28;20414;-66
2022/10/25 07:41:13;;;;;;;1.90;0.63;;;;;;;20.70;67.82;100597.25;4936913;28;20282;-66
2022/10/25 07:43:39;;;;;;;1.40;0.57;;;;;;;20.71;67.84;100591.13;4923902;28;20175;-66
2022/10/25 07:46:05;;;;;;;1.40;0.60;;;;;;;20.71;67.64;100591.13;4956625;28;20270;-66
2022/10/25 07:48:30;;;;;;;1.40;0.60;;;;;;;20.70;67.83;100606.69;4953593;28;20182;-66
2022/10/25 07:50:55;;;;;;;1.60;0.70;;;;;;;20.71;67.18;100605.47;4941519;28;20182;-66
2022/10/25 07:53:21;;;;;;;1.40;0.60;;;;;;;20.71;67.34;100611.22;4942540;28;20195;-66
2022/10/25 07:55:50;;;;;;;1.30;0.53;;;;;;;20.71;67.42;100605.47;4959984;28;20679;-66
2022/10/25 07:58:16;;;;;;;1.47;0.60;;;;;;;20.71;67.53;100608.34;4939098;28;20187;-66
2022/10/25 08:00:41;;;;;;;1.40;0.57;;;;;;;20.73;67.24;100603.03;4951748;28;20562;-66
2022/10/25 08:03:07;;;;;;;1.50;0.70;;;;;;;20.73;67.72;100605.91;4941543;28;20647;-66
2022/10/25 08:05:32;;;;;;;2.03;0.60;;;;;;;20.73;67.56;100614.50;4936127;28;20572;-66
2022/10/25 08:07:58;;;;;;;1.60;0.70;;;;;;;20.72;67.56;100612.84;4925893;29;20232;-66
2022/10/25 08:10:23;;;;;;;2.03;0.63;;;;;;;20.72;67.59;100615.72;4931529;29;20202;-66
2022/10/25 08:12:49;;;;;;;1.40;0.70;;;;;;;20.71;67.53;100614.09;4939511;29;20204;-66
2022/10/25 08:15:14;;;;;;;1.47;0.60;;;;;;;20.74;67.54;100613.31;4922188;29;20183;-66
2022/10/25 08:17:40;;;;;;;1.40;0.57;;;;;;;20.74;67.19;100613.31;4939748;29;20235;-67
2022/10/25 08:20:06;;;;;;;1.43;0.60;;;;;;;20.76;67.41;100621.50;4943012;28;20498;-66
2022/10/25 08:22:31;;;;;;;1.30;0.50;;;;;;;20.74;67.53;100612.47;4954936;28;20266;-66
2022/10/25 08:24:57;;;;;;;1.67;0.80;;;;;;;20.75;67.36;100619.88;4924610;29;20280;-66
2022/10/25 08:27:22;;;;;;;2.20;0.80;;;;;;;20.73;67.28;100614.50;4940814;29;20206;-66
2022/10/25 08:29:47;;;;;;;1.30;0.63;;;;;;;20.73;67.43;100620.25;4938398;29;20544;-67
2022/10/25 08:32:13;;;;;;;1.30;0.60;;;;;;;20.75;67.58;100614.13;4938966;28;20824;-66
2022/10/25 08:34:38;;;;;;;1.50;0.50;;;;;;;20.74;67.55;100612.47;4940079;29;20250;-67
2022/10/25 08:37:04;;;;;;;2.07;0.70;;;;;;;20.74;67.41;100607.56;4937776;29;20659;-66
2022/10/25 08:39:29;;;;;;;1.60;0.80;;;;;;;20.75;67.56;100614.13;4937652;28;20188;-66
2022/10/25 08:41:56;;;;;;;1.23;0.50;;;;;;;20.74;67.16;100601.84;4939932;29;20191;-66
2022/10/25 08:44:42;;;;;;;1.53;0.70;;;;;;;20.74;67.22;100609.59;4937451;29;20190;-67
2022/10/25 08:47:33;;;;;;;1.70;0.67;;;;;;;20.76;67.21;100599.41;4937912;29;20506;-66
2022/10/25 08:50:00;;;;;;;1.67;0.70;;;;;;;20.74;67.36;100607.56;4938090;29;20445;-66
2022/10/25 08:52:31;;;;;;;1.40;0.70;;;;;;;20.74;67.56;100613.31;4954838;28;20516;-66
2022/10/25 08:54:57;;;;;;;1.50;0.70;;;;;;;20.75;67.45;100609.22;4936222;29;20431;-66
2022/10/25 08:57:24;;;;;;;1.83;0.70;;;;;;;20.74;67.41;100607.56;4939195;29;20438;-66
2022/10/25 08:59:52;;;;;;;1.70;0.60;;;;;;;20.75;67.42;100602.66;4922037;29;20446;-66
2022/10/25 09:02:41;;;;;;;2.60;0.63;;;;;;;20.73;67.25;100605.91;4944516;28;20565;-67
2022/10/25 09:05:39;;;;;;;1.60;0.70;;;;;;;20.75;67.67;100609.22;4921341;29;20452;-67
2022/10/25 09:08:23;;;;;;;2.00;0.80;;;;;;;20.73;67.54;100608.75;4954090;28;20494;-66
2022/10/25 09:11:06;;;;;;;1.83;0.60;;;;;;;20.75;67.62;100611.25;4938237;28;20419;-66
2022/10/25 09:13:46;;;;;;;1.93;0.60;;;;;;;20.72;67.43;100615.72;4937118;29;20832;-66
2022/10/25 09:16:16;;;;;;;1.53;0.60;;;;;;;20.75;67.53;100614.13;4935589;29;20931;-67
2022/10/25 09:18:47;;;;;;;1.60;0.70;;;;;;;20.76;67.34;100612.91;4943735;28;20435;-66
2022/10/25 09:21:31;;;;;;;1.43;0.67;;;;;;;20.78;67.28;100621.97;4944326;28;21233;-66
2022/10/25 09:24:18;;;;;;;1.80;0.73;;;;;;;20.76;67.38;100616.63;4935052;29;20479;-67
2022/10/25 09:27:06;;;;;;;1.53;0.60;;;;;;;20.77;67.18;100617.44;4935682;29;21189;-66
2022/10/25 09:29:40;;;;;;;1.60;0.73;;;;;;;20.76;67.47;100615.78;4949680;28;20434;-66
2022/10/25 09:32:31;;;;;;;1.50;0.70;;;;;;;20.78;67.27;100602.69;4933636;29;20872;-67
2022/10/25 09:34:56;;;;;;;1.93;0.90;;;;;;;20.76;67.29;100610.03;4900863;29;21313;-66
2022/10/25 09:37:26;;;;;;;1.50;0.70;;;;;;;20.78;67.25;100608.44;4940005;28;20444;-67
2022/10/25 09:39:53;;;;;;;1.40;0.70;;;;;;;20.76;67.76;100610.03;4917173;29;20232;-67
2022/10/25 09:42:31;;;;;;;1.67;0.77;;;;;;;20.77;67.45;100612.53;4919631;29;20474;-66
2022/10/25 09:45:03;;;;;;;1.80;0.70;;;;;;;20.78;67.13;100607.63;4935420;28;20530;-67
2022/10/25 09:48:08;;;;;;;2.03;0.70;;;;;;;20.76;67.27;100608.00;4950294;28;20646;-67
2022/10/25 09:50:42;;;;;;;1.40;0.60;;;;;;;20.76;67.59;100605.13;4948313;28;20431;-66
2022/10/25 09:53:15;;;;;;;1.60;0.60;;;;;;;20.79;67.38;100600.66;4935103;28;20537;-67
2022/10/25 09:55:48;;;;;;;1.30;0.50;;;;;;;20.78;67.37;100601.88;4955459;28;20426;-67
2022/10/25 09:58:29;;;;;;;1.40;0.60;;;;;;;20.76;67.27;100599.41;4944125;29;20880;-66
2022/10/25 10:00:55;;;;;;;1.43;0.67;;;;;;;20.79;67.20;100600.66;4936889;29;20513;-67
2022/10/25 10:03:21;;;;;;;1.43;0.60;;;;;;;20.78;67.37;100599.81;4925929;28;20422;-67
2022/10/25 10:05:54;;;;;;;2.60;0.63;;;;;;;20.78;67.56;100596.94;4918464;29;20455;-67
2022/10/25 10:08:19;;;;;;;1.40;0.60;;;;;;;20.80;67.27;100591.66;4935751;29;20235;-66
2022/10/25 10:10:46;;;;;;;1.67;0.70;;;;;;;20.78;67.31;100607.63;4934080;29;20439;-67
2022/10/25 10:13:30;;;;;;;1.50;0.60;;;;;;;20.80;67.44;100596.56;4943361;28;21113;-66
2022/10/25 10:16:00;;;;;;;1.40;0.63;;;;;;;20.81;67.20;100590.44;4934054;29;20457;-67
2022/10/25 10:18:30;;;;;;;1.50;0.70;;;;;;;20.78;67.13;100596.94;4935943;28;20438;-67
2022/10/25 10:21:05;;;;;;;1.63;0.60;;;;;;;20.83;67.28;100596.63;4920879;29;20432;-66
2022/10/25 10:23:44;;;;;;;1.20;0.50;;;;;;;20.81;67.51;100590.44;4936996;29;20411;-67
2022/10/25 10:26:11;;;;;;;1.50;0.60;;;;;;;20.79;67.76;100590.03;4936719;28;20443;-67
2022/10/25 10:28:36;;;;;;;2.17;0.60;;;;;;;20.84;67.11;100585.97;4949116;28;20430;-67
2022/10/25 10:31:02;;;;;;;1.60;0.57;;;;;;;20.82;66.91;100580.63;4949600;28;20462;-67
2022/10/25 10:33:29;;;;;;;1.40;0.60;;;;;;;20.83;67.34;100588.00;4918634;29;20243;-67
2022/10/25 10:35:55;;;;;;;1.20;0.50;;;;;;;20.80;67.62;100583.06;4933312;29;20266;-66
2022/10/25 10:38:24;;;;;;;1.80;0.70;;;;;;;20.85;67.32;100587.63;4935000;29;20983;-67
2022/10/25 10:40:51;;;;;;;1.77;0.80;;;;;;;20.83;67.15;100585.13;4934630;29;20182;-67
2022/10/25 10:43:23;;;;;;;1.70;0.80;;;;;;;20.84;67.39;100578.19;4902070;29;20851;-67
2022/10/25 10:45:49;;;;;;;2.10;1.10;;;;;;;20.79;67.35;100569.94;4937534;29;20416;-67
2022/10/25 10:48:20;;;;;;;1.77;0.67;;;;;;;20.84;67.32;100572.47;4929518;29;20502;-67
2022/10/25 10:50:49;;;;;;;1.93;0.70;;;;;;;20.84;67.21;100572.47;4920850;29;20180;-67
2022/10/25 10:53:21;;;;;;;1.60;0.70;;;;;;;20.86;67.21;100575.75;4918670;29;20463;-67
2022/10/25 10:55:51;;;;;;;2.33;0.60;;;;;;;20.86;67.11;100575.75;4948354;28;20423;-67
2022/10/25 10:58:38;;;;;;;1.20;0.50;;;;;;;20.84;67.38;100578.19;4913663;29;20431;-66
2022/10/25 11:01:11;;;;;;;1.53;0.70;;;;;;;20.88;67.07;100578.25;4948604;28;20412;-68
2022/10/25 11:03:47;;;;;;;1.50;0.70;;;;;;;20.89;67.08;100582.75;4903708;29;20450;-67
2022/10/25 11:06:17;;;;;;;2.20;0.60;;;;;;;20.86;67.20;100574.91;4949789;28;20437;-67
2022/10/25 11:08:46;;;;;;;1.70;0.67;;;;;;;20.86;67.06;100575.75;4933166;28;20525;-67
2022/10/25 11:11:17;;;;;;;1.60;0.63;;;;;;;20.86;67.42;100575.75;4923766;29;20468;-67
2022/10/25 11:13:50;;;;;;;1.67;0.60;;;;;;;20.87;67.50;100573.72;4913424;29;20815;-66
2022/10/25 11:16:47;;;;;;;1.40;0.60;;;;;;;20.87;67.15;100571.66;4933351;29;20514;-67
2022/10/25 11:19:33;;;;;;;1.30;0.60;;;;;;;20.91;67.18;100571.72;4934804;29;20446;-66
2022/10/25 11:22:08;;;;;;;1.60;0.70;;;;;;;20.92;67.19;100568.47;4936522;29;20416;-67
2022/10/25 11:24:52;;;;;;;1.30;0.57;;;;;;;20.91;67.17;100571.72;4951046;28;20851;-67
2022/10/25 11:27:29;;;;;;;1.40;0.60;;;;;;;20.92;67.07;100565.59;4942254;29;20415;-67
2022/10/25 11:30:02;;;;;;;1.30;0.57;;;;;;;20.93;67.24;100563.56;4938232;29;20564;-66
2022/10/25 11:32:45;;;;;;;1.43;0.70;;;;;;;20.94;67.13;100560.31;4936452;29;20454;-67
2022/10/25 11:35:35;;;;;;;1.40;0.70;;;;;;;20.98;66.63;100566.09;4920780;29;20573;-67